Airfield :
LOGIN :

Register | Disclaimer

   EN    FR    IT 

 










Legend :    VFR   Marginal VFR   IFR   Intensive IFR   Very Intensive IFR
Visi :
Ceiling :
>= 8 km
>= 3000ft
5 to 8 km
1000 to 3000 ft
1500m to 5 km
500 to 1000 ft
800 to 1500m
200 to 500 ft
< 800m
< 200 ft
Symbols :   Thunderstorms  Fog  Heavy snow  Heavy precipitations  Wind > 20 kt
SIGMETs :     Misc.  Thunderstorms  Icing  Turbulence  Mountain Waves  Volcanic Ashes






- Airport Elevation : 1742 ft
- IATA code : SOF


LBSF - Sofia Int.

CURRENT METAR :
  • 071400Z 04012KT 360V070 CAVOK 13/M06 Q1029 NOSIG

EXPIRED METARs :
  • 071330Z 06016KT 030V090 CAVOK 13/M07 Q1030 NOSIG
  • 071300Z 04012G22KT 350V080 CAVOK 13/M06 Q1030 NOSIG
  • 071230Z 09010G23KT 040V130 CAVOK 13/M07 Q1030 NOSIG
  • 071200Z 07012KT 010V110 CAVOK 13/M07 Q1031 NOSIG
  • 071130Z 05008KT 350V100 CAVOK 13/M05 Q1031 NOSIG

TAF TAF LBSF
Valid from the 07 at 12:00 until the 08 at 12:00 UTC


071100Z 0712/0812 06016KT CAVOK
BECMG 0718/0720 VRB04KT
BECMG 0808/0810 08012KT



MET'MAP, your aeronautical weather chart ! - Copyright ORBIFLY December 2007 - Disclaimer

ORBIFLY MET'MAP TEAM :

Programming & Development : Alexandra Zaïnal
Concept & original design : Baudouin d'Aumeries
Assistance for programming : Marc-Olivier Méhu
Technical & hardware support : Manuel Goepfert

Contact : metmap@orbifly.com




SOURCES & CREDITS :

   NOAA